sensor_id;sensor_type;location;lat;lon;timestamp;temperature;humidity
19033;DHT22;9649;51.042;13.804;2023-05-17T00:00:24;7.10;1.00
19033;DHT22;9649;51.042;13.804;2023-05-17T00:05:52;6.90;1.00
19033;DHT22;9649;51.042;13.804;2023-05-17T00:11:23;6.80;1.00
19033;DHT22;9649;51.042;13.804;2023-05-17T00:16:46;6.70;1.00
19033;DHT22;9649;51.042;13.804;2023-05-17T00:22:23;6.60;36.40
19033;DHT22;9649;51.042;13.804;2023-05-17T00:34:50;6.30;99.90
19033;DHT22;9649;51.042;13.804;2023-05-17T00:40:22;6.30;93.90
19033;DHT22;9649;51.042;13.804;2023-05-17T00:45:47;6.20;99.90
19033;DHT22;9649;51.042;13.804;2023-05-17T00:57:56;6.20;71.90
19033;DHT22;9649;51.042;13.804;2023-05-17T01:03:55;6.20;6.70
19033;DHT22;9649;51.042;13.804;2023-05-17T01:09:11;6.10;1.00
19033;DHT22;9649;51.042;13.804;2023-05-17T01:15:07;6.00;6.10
19033;DHT22;9649;51.042;13.804;2023-05-17T01:21:03;6.10;34.30
19033;DHT22;9649;51.042;13.804;2023-05-17T01:27:05;6.10;13.30
19033;DHT22;9649;51.042;13.804;2023-05-17T01:33:05;6.00;40.50
19033;DHT22;9649;51.042;13.804;2023-05-17T01:46:25;5.90;97.30
19033;DHT22;9649;51.042;13.804;2023-05-17T01:51:52;5.90;99.90
19033;DHT22;9649;51.042;13.804;2023-05-17T02:03:58;5.90;76.00
19033;DHT22;9649;51.042;13.804;2023-05-17T02:09:37;5.90;14.00
19033;DHT22;9649;51.042;13.804;2023-05-17T02:52:47;5.50;59.30
19033;DHT22;9649;51.042;13.804;2023-05-17T02:58:48;5.40;99.90
19033;DHT22;9649;51.042;13.804;2023-05-17T03:04:05;5.30;99.90
19033;DHT22;9649;51.042;13.804;2023-05-17T03:09:09;5.20;99.90
19033;DHT22;9649;51.042;13.804;2023-05-17T03:14:11;5.20;99.90
19033;DHT22;9649;51.042;13.804;2023-05-17T03:19:14;5.30;99.90
19033;DHT22;9649;51.042;13.804;2023-05-17T03:24:18;5.30;99.90
19033;DHT22;9649;51.042;13.804;2023-05-17T03:29:21;5.30;99.90
19033;DHT22;9649;51.042;13.804;2023-05-17T03:34:24;5.40;99.90
19033;DHT22;9649;51.042;13.804;2023-05-17T03:39:28;5.30;99.90
19033;DHT22;9649;51.042;13.804;2023-05-17T03:44:31;5.30;99.90
19033;DHT22;9649;51.042;13.804;2023-05-17T03:49:34;5.40;99.90
19033;DHT22;9649;51.042;13.804;2023-05-17T03:54:38;5.50;99.90
19033;DHT22;9649;51.042;13.804;2023-05-17T03:59:41;5.60;99.90
19033;DHT22;9649;51.042;13.804;2023-05-17T04:04:48;5.80;99.90
19033;DHT22;9649;51.042;13.804;2023-05-17T04:09:53;6.00;99.90
19033;DHT22;9649;51.042;13.804;2023-05-17T04:14:59;6.20;8.00
19033;DHT22;9649;51.042;13.804;2023-05-17T04:20:02;6.50;1.00
19033;DHT22;9649;51.042;13.804;2023-05-17T04:25:08;6.80;1.00
19033;DHT22;9649;51.042;13.804;2023-05-17T04:30:12;7.10;1.00
19033;DHT22;9649;51.042;13.804;2023-05-17T04:35:15;7.40;1.00
19033;DHT22;9649;51.042;13.804;2023-05-17T04:40:19;7.60;1.00
19033;DHT22;9649;51.042;13.804;2023-05-17T04:45:22;8.00;1.00
19033;DHT22;9649;51.042;13.804;2023-05-17T04:50:25;8.30;1.00
19033;DHT22;9649;51.042;13.804;2023-05-17T04:55:29;8.70;1.00
19033;DHT22;9649;51.042;13.804;2023-05-17T05:00:32;9.10;99.90
19033;DHT22;9649;51.042;13.804;2023-05-17T05:05:35;9.30;1.00
19033;DHT22;9649;51.042;13.804;2023-05-17T05:10:39;9.70;99.90
19033;DHT22;9649;51.042;13.804;2023-05-17T05:15:42;10.50;99.90
19033;DHT22;9649;51.042;13.804;2023-05-17T05:20:46;11.00;1.00
19033;DHT22;9649;51.042;13.804;2023-05-17T05:25:50;11.30;99.90
19033;DHT22;9649;51.042;13.804;2023-05-17T05:30:56;11.40;99.90
19033;DHT22;9649;51.042;13.804;2023-05-17T05:36:00;11.50;99.30
19033;DHT22;9649;51.042;13.804;2023-05-17T05:41:04;11.50;1.00
19033;DHT22;9649;51.042;13.804;2023-05-17T05:46:06;11.70;1.00
19033;DHT22;9649;51.042;13.804;2023-05-17T05:51:09;11.80;99.90
19033;DHT22;9649;51.042;13.804;2023-05-17T05:56:13;11.70;99.90
19033;DHT22;9649;51.042;13.804;2023-05-17T06:01:16;11.50;1.00
19033;DHT22;9649;51.042;13.804;2023-05-17T06:06:19;11.60;1.00
19033;DHT22;9649;51.042;13.804;2023-05-17T06:11:26;11.80;1.00
19033;DHT22;9649;51.042;13.804;2023-05-17T06:16:29;12.10;1.00
19033;DHT22;9649;51.042;13.804;2023-05-17T06:21:32;12.70;1.00
19033;DHT22;9649;51.042;13.804;2023-05-17T06:26:36;12.10;1.00
19033;DHT22;9649;51.042;13.804;2023-05-17T06:31:39;12.20;1.00
19033;DHT22;9649;51.042;13.804;2023-05-17T06:36:42;12.10;99.90
19033;DHT22;9649;51.042;13.804;2023-05-17T06:41:46;12.20;99.90
19033;DHT22;9649;51.042;13.804;2023-05-17T06:46:49;12.40;10.70
19033;DHT22;9649;51.042;13.804;2023-05-17T06:51:51;12.50;1.00
19033;DHT22;9649;51.042;13.804;2023-05-17T06:57:00;12.10;99.90
19033;DHT22;9649;51.042;13.804;2023-05-17T07:02:03;12.60;1.00
19033;DHT22;9649;51.042;13.804;2023-05-17T07:07:06;13.10;1.00
19033;DHT22;9649;51.042;13.804;2023-05-17T07:12:10;13.80;1.00
19033;DHT22;9649;51.042;13.804;2023-05-17T07:17:13;14.30;1.00
19033;DHT22;9649;51.042;13.804;2023-05-17T07:22:16;15.20;99.90
19033;DHT22;9649;51.042;13.804;2023-05-17T07:27:20;15.20;1.00
19033;DHT22;9649;51.042;13.804;2023-05-17T07:32:23;14.40;1.00
19033;DHT22;9649;51.042;13.804;2023-05-17T07:37:26;15.00;79.60
19033;DHT22;9649;51.042;13.804;2023-05-17T07:42:31;14.40;1.00
19033;DHT22;9649;51.042;13.804;2023-05-17T07:47:36;13.90;1.00
19033;DHT22;9649;51.042;13.804;2023-05-17T07:52:39;13.80;1.00
19033;DHT22;9649;51.042;13.804;2023-05-17T07:57:44;13.80;1.00
19033;DHT22;9649;51.042;13.804;2023-05-17T08:02:48;13.80;1.00
19033;DHT22;9649;51.042;13.804;2023-05-17T08:07:51;13.80;99.90
19033;DHT22;9649;51.042;13.804;2023-05-17T08:12:55;14.00;1.00
19033;DHT22;9649;51.042;13.804;2023-05-17T08:17:57;14.50;1.00
19033;DHT22;9649;51.042;13.804;2023-05-17T08:23:05;14.50;1.00
19033;DHT22;9649;51.042;13.804;2023-05-17T08:28:09;15.10;99.90
19033;DHT22;9649;51.042;13.804;2023-05-17T08:33:13;15.90;99.90
19033;DHT22;9649;51.042;13.804;2023-05-17T08:38:16;16.40;1.00
19033;DHT22;9649;51.042;13.804;2023-05-17T08:43:24;15.70;1.00
19033;DHT22;9649;51.042;13.804;2023-05-17T08:48:29;16.00;1.00
19033;DHT22;9649;51.042;13.804;2023-05-17T08:53:33;15.60;1.00
19033;DHT22;9649;51.042;13.804;2023-05-17T08:58:38;16.10;1.00
19033;DHT22;9649;51.042;13.804;2023-05-17T09:09:30;16.20;1.00
19033;DHT22;9649;51.042;13.804;2023-05-17T09:14:49;15.70;1.00
19033;DHT22;9649;51.042;13.804;2023-05-17T09:20:11;14.40;1.00
19033;DHT22;9649;51.042;13.804;2023-05-17T09:26:16;14.80;99.90
19033;DHT22;9649;51.042;13.804;2023-05-17T09:31:54;21.10;1.00
19033;DHT22;9649;51.042;13.804;2023-05-17T09:37:22;19.70;1.00
19033;DHT22;9649;51.042;13.804;2023-05-17T09:42:50;17.80;1.00
19033;DHT22;9649;51.042;13.804;2023-05-17T09:48:12;16.50;1.00
19033;DHT22;9649;51.042;13.804;2023-05-17T09:53:32;17.20;1.00
19033;DHT22;9649;51.042;13.804;2023-05-17T09:58:50;18.20;1.00
19033;DHT22;9649;51.042;13.804;2023-05-17T10:04:23;17.10;1.00
19033;DHT22;9649;51.042;13.804;2023-05-17T10:15:26;16.40;1.00
19033;DHT22;9649;51.042;13.804;2023-05-17T10:21:13;15.70;1.00
19033;DHT22;9649;51.042;13.804;2023-05-17T10:27:00;15.80;1.00
19033;DHT22;9649;51.042;13.804;2023-05-17T10:32:20;16.60;1.00
19033;DHT22;9649;51.042;13.804;2023-05-17T10:44:03;20.20;1.00
19033;DHT22;9649;51.042;13.804;2023-05-17T10:49:39;21.30;99.90
19033;DHT22;9649;51.042;13.804;2023-05-17T10:55:02;17.10;99.90
19033;DHT22;9649;51.042;13.804;2023-05-17T11:00:47;20.50;99.90
19033;DHT22;9649;51.042;13.804;2023-05-17T11:06:23;20.80;99.90
19033;DHT22;9649;51.042;13.804;2023-05-17T11:12:08;18.90;99.90
19033;DHT22;9649;51.042;13.804;2023-05-17T11:18:04;19.30;99.90
19033;DHT22;9649;51.042;13.804;2023-05-17T11:24:09;22.40;99.90
19033;DHT22;9649;51.042;13.804;2023-05-17T11:30:29;23.60;99.90
19033;DHT22;9649;51.042;13.804;2023-05-17T11:37:13;22.90;99.90
19033;DHT22;9649;51.042;13.804;2023-05-17T11:43:28;25.70;99.90
19033;DHT22;9649;51.042;13.804;2023-05-17T11:55:08;31.40;99.90
19033;DHT22;9649;51.042;13.804;2023-05-17T12:00:51;25.90;99.90
19033;DHT22;9649;51.042;13.804;2023-05-17T12:06:32;22.50;99.90
19033;DHT22;9649;51.042;13.804;2023-05-17T12:12:14;26.70;99.90
19033;DHT22;9649;51.042;13.804;2023-05-17T12:17:38;29.60;99.90
19033;DHT22;9649;51.042;13.804;2023-05-17T12:23:32;25.10;99.90
19033;DHT22;9649;51.042;13.804;2023-05-17T12:29:18;26.90;99.90
19033;DHT22;9649;51.042;13.804;2023-05-17T12:35:08;24.10;99.90
19033;DHT22;9649;51.042;13.804;2023-05-17T12:40:53;24.90;99.90
19033;DHT22;9649;51.042;13.804;2023-05-17T12:59:19;28.10;99.90
19033;DHT22;9649;51.042;13.804;2023-05-17T13:05:25;28.00;99.90
19033;DHT22;9649;51.042;13.804;2023-05-17T13:36:08;27.30;99.90
19033;DHT22;9649;51.042;13.804;2023-05-17T13:42:09;25.60;99.90
19033;DHT22;9649;51.042;13.804;2023-05-17T13:48:01;24.50;99.90
19033;DHT22;9649;51.042;13.804;2023-05-17T13:53:51;29.70;99.90
19033;DHT22;9649;51.042;13.804;2023-05-17T13:59:52;28.60;99.90
19033;DHT22;9649;51.042;13.804;2023-05-17T14:05:40;25.80;99.90
19033;DHT22;9649;51.042;13.804;2023-05-17T14:17:23;25.50;99.90
19033;DHT22;9649;51.042;13.804;2023-05-17T14:22:51;24.50;99.90
19033;DHT22;9649;51.042;13.804;2023-05-17T14:28:27;23.60;99.90
19033;DHT22;9649;51.042;13.804;2023-05-17T14:34:23;25.40;99.90
19033;DHT22;9649;51.042;13.804;2023-05-17T14:39:32;26.00;99.90
19033;DHT22;9649;51.042;13.804;2023-05-17T14:45:37;27.10;99.90
19033;DHT22;9649;51.042;13.804;2023-05-17T14:52:35;27.10;99.90
19033;DHT22;9649;51.042;13.804;2023-05-17T14:58:49;26.10;99.90
19033;DHT22;9649;51.042;13.804;2023-05-17T15:15:36;25.40;99.90
19033;DHT22;9649;51.042;13.804;2023-05-17T15:20:41;26.20;99.90
19033;DHT22;9649;51.042;13.804;2023-05-17T15:25:44;26.40;99.90
19033;DHT22;9649;51.042;13.804;2023-05-17T15:30:48;24.20;99.90
19033;DHT22;9649;51.042;13.804;2023-05-17T15:35:50;22.20;99.90
19033;DHT22;9649;51.042;13.804;2023-05-17T15:41:00;21.20;99.90
19033;DHT22;9649;51.042;13.804;2023-05-17T15:46:05;20.80;99.90
19033;DHT22;9649;51.042;13.804;2023-05-17T15:51:08;22.10;99.90
19033;DHT22;9649;51.042;13.804;2023-05-17T15:56:11;23.00;99.90
19033;DHT22;9649;51.042;13.804;2023-05-17T16:01:16;22.30;99.90
19033;DHT22;9649;51.042;13.804;2023-05-17T16:06:18;22.70;99.90
19033;DHT22;9649;51.042;13.804;2023-05-17T16:11:22;24.00;99.90
19033;DHT22;9649;51.042;13.804;2023-05-17T16:16:26;23.40;99.90
19033;DHT22;9649;51.042;13.804;2023-05-17T16:21:29;21.80;99.90
19033;DHT22;9649;51.042;13.804;2023-05-17T16:26:33;21.30;99.90
19033;DHT22;9649;51.042;13.804;2023-05-17T16:31:37;21.00;99.90
19033;DHT22;9649;51.042;13.804;2023-05-17T16:36:40;20.10;99.90
19033;DHT22;9649;51.042;13.804;2023-05-17T16:41:42;20.40;99.90
19033;DHT22;9649;51.042;13.804;2023-05-17T16:46:47;21.30;99.90
19033;DHT22;9649;51.042;13.804;2023-05-17T16:51:50;21.10;99.90
19033;DHT22;9649;51.042;13.804;2023-05-17T16:56:56;20.40;99.90
19033;DHT22;9649;51.042;13.804;2023-05-17T17:02:00;20.60;99.90
19033;DHT22;9649;51.042;13.804;2023-05-17T17:07:03;20.90;99.90
19033;DHT22;9649;51.042;13.804;2023-05-17T17:12:07;20.80;99.90
19033;DHT22;9649;51.042;13.804;2023-05-17T17:17:27;20.30;99.90
19033;DHT22;9649;51.042;13.804;2023-05-17T17:22:32;20.60;99.90
19033;DHT22;9649;51.042;13.804;2023-05-17T17:27:35;20.50;99.90
19033;DHT22;9649;51.042;13.804;2023-05-17T17:32:39;20.80;99.90
19033;DHT22;9649;51.042;13.804;2023-05-17T17:37:42;20.60;99.90
19033;DHT22;9649;51.042;13.804;2023-05-17T17:42:45;20.40;99.90
19033;DHT22;9649;51.042;13.804;2023-05-17T17:47:49;20.40;99.90
19033;DHT22;9649;51.042;13.804;2023-05-17T17:52:52;20.40;99.90
19033;DHT22;9649;51.042;13.804;2023-05-17T17:57:55;20.10;99.90
19033;DHT22;9649;51.042;13.804;2023-05-17T18:02:59;19.20;99.90
19033;DHT22;9649;51.042;13.804;2023-05-17T18:08:02;18.80;99.90
19033;DHT22;9649;51.042;13.804;2023-05-17T18:13:05;18.50;99.90
19033;DHT22;9649;51.042;13.804;2023-05-17T18:18:09;18.10;99.90
19033;DHT22;9649;51.042;13.804;2023-05-17T18:23:15;17.60;99.90
19033;DHT22;9649;51.042;13.804;2023-05-17T18:28:17;16.90;99.90
19033;DHT22;9649;51.042;13.804;2023-05-17T18:33:42;16.50;99.90
19033;DHT22;9649;51.042;13.804;2023-05-17T18:38:45;16.20;99.90
19033;DHT22;9649;51.042;13.804;2023-05-17T18:43:48;15.90;99.90
19033;DHT22;9649;51.042;13.804;2023-05-17T18:48:52;15.50;99.90
19033;DHT22;9649;51.042;13.804;2023-05-17T18:53:55;15.10;99.90
19033;DHT22;9649;51.042;13.804;2023-05-17T19:22:25;14.00;1.00
19033;DHT22;9649;51.042;13.804;2023-05-17T19:27:31;13.80;1.00
19033;DHT22;9649;51.042;13.804;2023-05-17T19:32:33;13.60;1.00
19033;DHT22;9649;51.042;13.804;2023-05-17T19:37:37;13.50;1.00
19033;DHT22;9649;51.042;13.804;2023-05-17T19:42:40;13.40;1.00
19033;DHT22;9649;51.042;13.804;2023-05-17T19:47:43;13.30;1.00
19033;DHT22;9649;51.042;13.804;2023-05-17T19:52:47;13.20;1.00
19033;DHT22;9649;51.042;13.804;2023-05-17T19:57:50;13.20;1.00
19033;DHT22;9649;51.042;13.804;2023-05-17T20:02:53;13.10;1.00
19033;DHT22;9649;51.042;13.804;2023-05-17T20:07:57;12.90;1.00
19033;DHT22;9649;51.042;13.804;2023-05-17T20:13:02;12.80;1.00
19033;DHT22;9649;51.042;13.804;2023-05-17T20:18:05;12.60;1.00
19033;DHT22;9649;51.042;13.804;2023-05-17T20:23:10;12.60;1.00
19033;DHT22;9649;51.042;13.804;2023-05-17T20:28:14;12.60;1.00
19033;DHT22;9649;51.042;13.804;2023-05-17T20:33:17;12.50;1.00
19033;DHT22;9649;51.042;13.804;2023-05-17T20:38:28;12.60;1.00
19033;DHT22;9649;51.042;13.804;2023-05-17T20:43:31;12.40;1.00
19033;DHT22;9649;51.042;13.804;2023-05-17T20:48:36;12.40;1.00
19033;DHT22;9649;51.042;13.804;2023-05-17T20:53:43;12.40;1.00
19033;DHT22;9649;51.042;13.804;2023-05-17T20:58:47;12.30;1.00
19033;DHT22;9649;51.042;13.804;2023-05-17T21:03:49;12.20;1.00
19033;DHT22;9649;51.042;13.804;2023-05-17T21:08:54;12.10;1.00
19033;DHT22;9649;51.042;13.804;2023-05-17T21:13:58;12.00;1.00
19033;DHT22;9649;51.042;13.804;2023-05-17T21:24:22;11.90;1.00
19033;DHT22;9649;51.042;13.804;2023-05-17T21:29:25;11.90;1.00
19033;DHT22;9649;51.042;13.804;2023-05-17T21:34:28;11.90;1.00
19033;DHT22;9649;51.042;13.804;2023-05-17T21:39:32;11.80;1.00
19033;DHT22;9649;51.042;13.804;2023-05-17T21:44:34;11.80;1.00
19033;DHT22;9649;51.042;13.804;2023-05-17T21:49:37;11.70;1.00
19033;DHT22;9649;51.042;13.804;2023-05-17T21:54:41;11.70;1.00
19033;DHT22;9649;51.042;13.804;2023-05-17T21:59:44;11.40;1.00
19033;DHT22;9649;51.042;13.804;2023-05-17T22:04:47;11.50;90.30
19033;DHT22;9649;51.042;13.804;2023-05-17T22:09:51;11.30;99.90
19033;DHT22;9649;51.042;13.804;2023-05-17T22:14:55;11.20;99.90
19033;DHT22;9649;51.042;13.804;2023-05-17T22:19:59;11.10;99.90
19033;DHT22;9649;51.042;13.804;2023-05-17T22:25:06;10.90;99.90
19033;DHT22;9649;51.042;13.804;2023-05-17T22:30:09;10.80;1.00
19033;DHT22;9649;51.042;13.804;2023-05-17T22:35:13;10.80;1.00
19033;DHT22;9649;51.042;13.804;2023-05-17T22:40:17;10.70;1.00
19033;DHT22;9649;51.042;13.804;2023-05-17T22:45:20;10.80;1.00
19033;DHT22;9649;51.042;13.804;2023-05-17T22:50:23;10.80;1.00
19033;DHT22;9649;51.042;13.804;2023-05-17T22:55:32;10.90;1.00
19033;DHT22;9649;51.042;13.804;2023-05-17T23:00:35;10.60;99.90
19033;DHT22;9649;51.042;13.804;2023-05-17T23:05:38;10.50;99.90
19033;DHT22;9649;51.042;13.804;2023-05-17T23:10:42;10.50;26.40
19033;DHT22;9649;51.042;13.804;2023-05-17T23:15:45;10.30;99.90
19033;DHT22;9649;51.042;13.804;2023-05-17T23:20:48;10.20;99.90
19033;DHT22;9649;51.042;13.804;2023-05-17T23:25:52;10.10;99.90
19033;DHT22;9649;51.042;13.804;2023-05-17T23:30:57;9.90;1.00
19033;DHT22;9649;51.042;13.804;2023-05-17T23:36:01;9.70;1.00
19033;DHT22;9649;51.042;13.804;2023-05-17T23:41:05;9.50;99.90
19033;DHT22;9649;51.042;13.804;2023-05-17T23:46:08;9.60;1.00
19033;DHT22;9649;51.042;13.804;2023-05-17T23:51:11;9.60;1.00
19033;DHT22;9649;51.042;13.804;2023-05-17T23:56:15;9.30;1.00
